Imperial, NE

3:51 AM MDT on July 26, 2014 (GMT -0600)
Imperial Municipal (KIML) Elev 3274 ft | 40.51 °N, 101.62 °W | Change Station

Current weather conditions updated 58 minutes ago

Clear
Clear
73 °F
Feels Like 73 °F
N
8
Wind Variable Wind from South

Today is forecast to be nearly the same temperature as yesterday.

Today
High -- | Low -- °F
--% Chance of Precip.
Yesterday
High -- | Low -- °F
Precip. -- in
5:38 AM 8:07 PM
Waning Crescent, 0% visible
Pressure 29.81 in
Visibility 10.0 miles
Clouds Clear
Dew Point 63 °F
Humidity 71%
Rainfall 0.00 in
Snow Depth Not available.
UV 0 out of 12
Pollen 7.50 out of 12
Air Quality Not available.
Flu Activity Not available.
METAR KIML 260853Z AUTO 18007KT 10SM CLR 23/17 A2992 RMK AO2 SLP092 T02280172 58000

More Conditions Fewer Conditions

Pressure 29.81 in
Visibility 10.0 miles
Clouds Clear
Dew Point 63 °F
Humidity 71%
Rainfall 0.00 in
Snow Depth Not available.
UV 0 out of 12
Pollen 7.50 out of 12
Air Quality Not available.
Flu Activity Not available.
METAR KIML 260853Z AUTO 18007KT 10SM CLR 23/17 A2992 RMK AO2 SLP092 T02280172 58000

More Conditions Fewer Conditions

10-Day Weather Forecast

Almanac

Astronomy

Jul. 26, 2014 Rise Set
Actual Time 5:38 AM MDT 8:07 PM MDT
Civil Twilight 5:07 AM MDT 8:38 PM MDT
Nautical Twilight 4:28 AM MDT 9:17 PM MDT
Astronomical Twilight 3:44 AM MDT 10:00 PM MDT
Moon 5:32 AM MDT 7:43 PM MDT
Length of Visible Light 15h 31m
Length of Day
14h 29m
Tomorrow will be 1m 50s shorter.
Waning Crescent, 0% of the Moon is Illuminated
Today
Waning Crescent
Jul 26
New
Aug 3
First Quarter
Aug 10
Full
Aug 17
Last Quarter

Today's Extremes

State Highs State Lows

Community

WunderPhotos

Upload Photos

1,737,529 photos uploaded!

Nearby

Snow Depth

Station Depth Elevation
No new snow has been reported.

Earthquake Activity

City Distance Mag. Time & Date
No recent earthquake activity has been reported nearby.
Minimum magnitude displayed is 2.5.

Coastal Water Temperatures

Place Temperature
No Stations Reporting

Nearby Weather Stations

Station Location Temp. Dew Point Humidity Wind Precip. Elev Updated Type
MesoWest JOHNSON FARM , Champion, NE 65 °F 65 °F 100% SE  at  3 mph 0.00 in / hr 3340 ft 2:00 AM MDT MADIS

Show More Stations Show Fewer Stations